Time;durP1;ratioP1;P1;durP2;ratioP2;P2;SDS_P1;SDS_P2;PMS_P1;PMS_P2;Temp;Humidity;BMP_temperature;BMP_pressure;BME280_temperature;BME280_humidity;BME280_pressure;Samples;Min_cycle;Max_cycle;Signal;HPM_P1;HPM_P2
2022/03/13 00:02:23;;;;;;;;;;;22.10;23.50;;;;;;4932851;29;19973;-64
2022/03/13 00:04:51;;;;;;;;;;;22.10;23.60;;;;;;4932586;29;20014;-64
2022/03/13 00:07:24;;;;;;;;;;;22.10;23.50;;;;;;4932415;29;19977;-63
2022/03/13 00:09:51;;;;;;;;;;;22.10;23.60;;;;;;4932035;29;19927;-64
2022/03/13 00:12:31;;;;;;;;;;;22.10;23.60;;;;;;4932433;29;20404;-64
2022/03/13 00:15:02;;;;;;;;;;;22.10;23.60;;;;;;4932270;29;19982;-64
2022/03/13 00:17:29;;;;;;;;;;;22.10;23.60;;;;;;4932003;29;19926;-64
2022/03/13 00:19:59;;;;;;;;;;;22.10;23.60;;;;;;4932560;29;20387;-64
2022/03/13 00:22:27;;;;;;;;;;;22.10;24.00;;;;;;4932060;29;19934;-64
2022/03/13 00:24:54;;;;;;;;;;;22.10;23.60;;;;;;4931906;29;19985;-64
2022/03/13 00:27:22;;;;;;;;;;;22.10;23.60;;;;;;4932085;29;19927;-64
2022/03/13 00:29:49;;;;;;;;;;;22.10;23.60;;;;;;4932120;29;19934;-64
2022/03/13 00:32:16;;;;;;;;;;;22.10;23.60;;;;;;4932188;29;19927;-64
2022/03/13 00:34:44;;;;;;;;;;;22.10;23.60;;;;;;4931550;29;19973;-64
2022/03/13 00:37:11;;;;;;;;;;;22.10;23.60;;;;;;4931996;29;19982;-64
2022/03/13 00:39:40;;;;;;;;;;;22.10;23.70;;;;;;4932358;29;19934;-64
2022/03/13 00:42:07;;;;;;;;;;;22.10;23.70;;;;;;4931633;29;19930;-64
2022/03/13 00:44:34;;;;;;;;;;;22.10;23.70;;;;;;4931451;29;19950;-64
2022/03/13 00:47:01;;;;;;;;;;;22.10;23.70;;;;;;4931646;29;19931;-64
2022/03/13 00:49:28;;;;;;;;;;;22.10;23.70;;;;;;4931724;29;19982;-64
2022/03/13 00:51:56;;;;;;;;;;;22.00;23.60;;;;;;4931814;29;19927;-63
2022/03/13 00:54:23;;;;;;;;;;;22.00;23.70;;;;;;4930230;28;19934;-64
2022/03/13 00:56:50;;;;;;;;;;;22.00;23.70;;;;;;4932028;29;20435;-64
2022/03/13 00:59:17;;;;;;;;;;;22.00;23.70;;;;;;4931139;29;20007;-64
2022/03/13 01:01:44;;;;;;;;;;;22.00;23.70;;;;;;4930346;29;19926;-63
2022/03/13 01:04:12;;;;;;;;;;;22.00;23.70;;;;;;4931579;29;19926;-64
2022/03/13 01:06:41;;;;;;;;;;;22.00;23.70;;;;;;4931287;29;19931;-63
2022/03/13 01:09:08;;;;;;;;;;;22.00;23.70;;;;;;4931278;29;19933;-63
2022/03/13 01:11:35;;;;;;;;;;;22.00;23.70;;;;;;4931490;29;20151;-62
2022/03/13 01:14:02;;;;;;;;;;;22.00;23.80;;;;;;4931244;29;20431;-63
2022/03/13 01:16:33;;;;;;;;;;;22.00;23.80;;;;;;4931035;29;20021;-63
2022/03/13 01:19:00;;;;;;;;;;;22.00;23.80;;;;;;4931894;29;19990;-63
2022/03/13 01:21:28;;;;;;;;;;;22.00;23.80;;;;;;4930922;29;19927;-63
2022/03/13 01:24:15;;;;;;;;;;;21.90;23.80;;;;;;4930886;29;19973;-63
2022/03/13 01:26:42;;;;;;;;;;;22.00;23.80;;;;;;4931189;29;19954;-63
2022/03/13 01:29:13;;;;;;;;;;;21.90;23.80;;;;;;4930782;29;19927;-63
2022/03/13 01:31:44;;;;;;;;;;;21.90;23.80;;;;;;4930946;29;19982;-63
2022/03/13 01:34:25;;;;;;;;;;;21.90;23.80;;;;;;4930662;29;19933;-63
2022/03/13 01:36:52;;;;;;;;;;;21.90;23.80;;;;;;4930946;29;19927;-63
2022/03/13 01:39:19;;;;;;;;;;;21.90;23.80;;;;;;4931300;29;20560;-63
2022/03/13 01:41:46;;;;;;;;;;;21.90;23.80;;;;;;4930687;29;20368;-63
2022/03/13 01:44:12;;;;;;;;;;;21.90;23.80;;;;;;4931618;29;20258;-63
2022/03/13 01:46:39;;;;;;;;;;;21.90;23.80;;;;;;4930808;29;20498;-63
2022/03/13 01:49:08;;;;;;;;;;;21.90;24.30;;;;;;4930583;29;19990;-63
2022/03/13 01:51:35;;;;;;;;;;;21.90;23.90;;;;;;4931027;29;19927;-63
2022/03/13 01:54:04;;;;;;;;;;;21.90;23.90;;;;;;4930820;29;19982;-63
2022/03/13 01:56:31;;;;;;;;;;;21.90;23.90;;;;;;4930843;29;19934;-63
2022/03/13 01:58:58;;;;;;;;;;;21.90;23.90;;;;;;4930698;29;20742;-63
2022/03/13 02:01:26;;;;;;;;;;;21.80;23.80;;;;;;4931103;29;19998;-63
2022/03/13 02:03:53;;;;;;;;;;;21.90;23.90;;;;;;4930781;29;20044;-63
2022/03/13 02:06:23;;;;;;;;;;;21.90;23.90;;;;;;4930282;29;20315;-63
2022/03/13 02:08:50;;;;;;;;;;;21.90;23.90;;;;;;4934960;29;19931;-63
2022/03/13 02:11:19;;;;;;;;;;;21.80;23.90;;;;;;4934866;29;19931;-62
2022/03/13 02:13:47;;;;;;;;;;;21.80;23.90;;;;;;4934571;29;19974;-62
2022/03/13 02:16:15;;;;;;;;;;;21.80;23.90;;;;;;4934351;29;19974;-62
2022/03/13 02:18:46;;;;;;;;;;;21.80;24.40;;;;;;4934292;29;20415;-63
2022/03/13 02:21:14;;;;;;;;;;;21.90;23.90;;;;;;4934217;29;20296;-63
2022/03/13 02:23:42;;;;;;;;;;;21.80;23.90;;;;;;4933995;29;19982;-62
2022/03/13 02:26:09;;;;;;;;;;;21.80;23.90;;;;;;4934315;29;19930;-63
2022/03/13 02:28:37;;;;;;;;;;;21.80;23.90;;;;;;4934332;29;19958;-63
2022/03/13 02:31:05;;;;;;;;;;;21.80;23.90;;;;;;4934052;29;19982;-63
2022/03/13 02:33:32;;;;;;;;;;;21.80;23.90;;;;;;4934372;29;20336;-63
2022/03/13 02:36:01;;;;;;;;;;;21.80;23.90;;;;;;4934077;29;19927;-63
2022/03/13 02:38:29;;;;;;;;;;;21.80;24.00;;;;;;4934456;29;19927;-63
2022/03/13 02:40:56;;;;;;;;;;;21.80;24.00;;;;;;4933596;29;20384;-63
2022/03/13 02:43:24;;;;;;;;;;;21.80;24.00;;;;;;4933995;29;19926;-63
2022/03/13 02:45:55;;;;;;;;;;;21.80;24.00;;;;;;4933719;29;20427;-62
2022/03/13 02:48:22;;;;;;;;;;;21.80;24.00;;;;;;4934014;29;20292;-63
2022/03/13 02:50:49;;;;;;;;;;;21.80;24.00;;;;;;4933934;29;19986;-62
2022/03/13 02:53:16;;;;;;;;;;;21.80;24.00;;;;;;4933958;29;19974;-62
2022/03/13 02:55:44;;;;;;;;;;;21.80;24.00;;;;;;4933389;29;19973;-62
2022/03/13 02:58:13;;;;;;;;;;;21.80;24.00;;;;;;4933627;29;19927;-64
2022/03/13 03:00:42;;;;;;;;;;;21.80;24.00;;;;;;4933920;29;20292;-63
2022/03/13 03:03:14;;;;;;;;;;;21.80;24.00;;;;;;4933628;29;19930;-63
2022/03/13 03:05:41;;;;;;;;;;;21.80;24.10;;;;;;4933384;29;19931;-62
2022/03/13 03:08:09;;;;;;;;;;;21.80;24.10;;;;;;4933884;29;19970;-63
2022/03/13 03:10:36;;;;;;;;;;;21.80;24.10;;;;;;4931972;29;19974;-62
2022/03/13 03:13:03;;;;;;;;;;;21.70;24.00;;;;;;4933466;29;19934;-63
2022/03/13 03:15:30;;;;;;;;;;;21.70;24.10;;;;;;4933309;29;19986;-63
2022/03/13 03:17:57;;;;;;;;;;;21.70;24.00;;;;;;4933019;29;20168;-63
2022/03/13 03:20:26;;;;;;;;;;;21.80;24.10;;;;;;4931764;29;19927;-64
2022/03/13 03:22:54;;;;;;;;;;;21.70;24.00;;;;;;4933095;29;19926;-62
2022/03/13 03:25:23;;;;;;;;;;;21.70;24.10;;;;;;4916350;29;19935;-62
2022/03/13 03:27:51;;;;;;;;;;;21.70;24.00;;;;;;4933370;29;19931;-63
2022/03/13 03:30:19;;;;;;;;;;;21.70;24.10;;;;;;4932828;29;19981;-63
2022/03/13 03:32:47;;;;;;;;;;;21.70;24.10;;;;;;4932782;29;19930;-63
2022/03/13 03:35:16;;;;;;;;;;;21.70;24.10;;;;;;4932808;29;19926;-63
2022/03/13 03:37:43;;;;;;;;;;;21.70;24.10;;;;;;4932969;29;19926;-62
2022/03/13 03:40:13;;;;;;;;;;;21.70;24.10;;;;;;4932896;29;20375;-63
2022/03/13 03:42:41;;;;;;;;;;;21.70;24.10;;;;;;4933044;29;19926;-62
2022/03/13 03:45:09;;;;;;;;;;;21.70;24.10;;;;;;4933027;29;19927;-63
2022/03/13 03:47:36;;;;;;;;;;;21.70;24.10;;;;;;4932703;29;20376;-63
2022/03/13 03:50:03;;;;;;;;;;;21.70;24.10;;;;;;4933199;29;20344;-63
2022/03/13 03:52:30;;;;;;;;;;;21.70;24.10;;;;;;4932594;29;20133;-63
2022/03/13 03:54:57;;;;;;;;;;;21.70;24.10;;;;;;4932479;29;20056;-62
2022/03/13 03:57:24;;;;;;;;;;;21.70;24.10;;;;;;4932825;29;20295;-63
2022/03/13 03:59:51;;;;;;;;;;;21.70;24.10;;;;;;4931100;29;19931;-62
2022/03/13 04:02:18;;;;;;;;;;;21.70;24.10;;;;;;4931261;29;20052;-63
2022/03/13 04:04:46;;;;;;;;;;;21.70;24.10;;;;;;4932756;29;20315;-62
2022/03/13 04:07:13;;;;;;;;;;;21.70;24.10;;;;;;4932197;29;19927;-63
2022/03/13 04:09:40;;;;;;;;;;;21.70;24.10;;;;;;4932351;29;20224;-62
2022/03/13 04:12:08;;;;;;;;;;;21.60;24.10;;;;;;4932623;29;19926;-63
2022/03/13 04:14:35;;;;;;;;;;;21.70;24.20;;;;;;4932467;29;19931;-62
2022/03/13 04:17:02;;;;;;;;;;;21.60;24.20;;;;;;4932056;29;20388;-62
2022/03/13 04:19:30;;;;;;;;;;;21.60;24.10;;;;;;4931841;29;19933;-62
2022/03/13 04:21:57;;;;;;;;;;;21.60;24.10;;;;;;4932564;29;20372;-62
2022/03/13 04:24:24;;;;;;;;;;;21.60;24.20;;;;;;4931784;29;20455;-62
2022/03/13 04:26:51;;;;;;;;;;;21.60;24.20;;;;;;4932121;29;19978;-62
2022/03/13 04:29:18;;;;;;;;;;;21.60;24.20;;;;;;4931628;29;19939;-62
2022/03/13 04:31:46;;;;;;;;;;;21.60;24.20;;;;;;4931936;29;19927;-62
2022/03/13 04:34:15;;;;;;;;;;;21.60;24.20;;;;;;4931965;29;20632;-62
2022/03/13 04:36:42;;;;;;;;;;;21.60;24.20;;;;;;4931484;29;19926;-62
2022/03/13 04:39:09;;;;;;;;;;;21.60;24.20;;;;;;4932280;29;19990;-62
2022/03/13 04:41:40;;;;;;;;;;;21.60;24.20;;;;;;4931922;29;19935;-62
2022/03/13 04:44:08;;;;;;;;;;;21.60;24.20;;;;;;4932116;29;20295;-62
2022/03/13 04:46:35;;;;;;;;;;;21.60;24.20;;;;;;4931344;29;20428;-62
2022/03/13 04:49:02;;;;;;;;;;;21.60;24.20;;;;;;4931484;29;20038;-62
2022/03/13 04:51:29;;;;;;;;;;;21.60;24.20;;;;;;4931645;29;19934;-62
2022/03/13 04:53:57;;;;;;;;;;;21.60;24.20;;;;;;4931350;29;19982;-62
2022/03/13 04:56:24;;;;;;;;;;;21.60;24.20;;;;;;4931818;29;19978;-63
2022/03/13 04:58:51;;;;;;;;;;;21.60;24.30;;;;;;4931546;29;19930;-62
2022/03/13 05:01:21;;;;;;;;;;;21.60;24.30;;;;;;4931378;29;19997;-62
2022/03/13 05:03:48;;;;;;;;;;;21.60;24.30;;;;;;4931672;29;19927;-62
2022/03/13 05:06:15;;;;;;;;;;;21.60;24.20;;;;;;4931132;29;19931;-63
2022/03/13 05:08:42;;;;;;;;;;;21.60;24.30;;;;;;4931436;29;19974;-62
2022/03/13 05:11:09;;;;;;;;;;;21.60;24.30;;;;;;4931499;29;19994;-62
2022/03/13 05:13:36;;;;;;;;;;;21.60;24.30;;;;;;4931240;29;20468;-62
2022/03/13 05:16:03;;;;;;;;;;;21.60;24.30;;;;;;4931234;29;20439;-63
2022/03/13 05:18:31;;;;;;;;;;;21.60;24.30;;;;;;4931238;29;19927;-62
2022/03/13 05:20:59;;;;;;;;;;;21.60;24.30;;;;;;4931507;29;20729;-62
2022/03/13 05:23:26;;;;;;;;;;;21.60;24.30;;;;;;4931040;29;20017;-62
2022/03/13 05:25:53;;;;;;;;;;;21.60;24.30;;;;;;4931359;29;19962;-62
2022/03/13 05:28:20;;;;;;;;;;;21.60;24.30;;;;;;4931152;29;19954;-62
2022/03/13 05:30:47;;;;;;;;;;;21.60;24.30;;;;;;4930963;29;19982;-62
2022/03/13 05:33:14;;;;;;;;;;;21.60;24.30;;;;;;4930992;29;19927;-62
2022/03/13 05:35:41;;;;;;;;;;;21.60;24.30;;;;;;4919585;29;19931;-62
2022/03/13 05:38:08;;;;;;;;;;;21.60;24.30;;;;;;4911972;29;19983;-61
2022/03/13 05:40:36;;;;;;;;;;;21.60;24.20;;;;;;4911999;29;19931;-62
2022/03/13 05:43:04;;;;;;;;;;;21.60;24.20;;;;;;4911085;29;19978;-62
2022/03/13 05:45:31;;;;;;;;;;;21.60;24.20;;;;;;4912249;29;19958;-62
2022/03/13 05:48:00;;;;;;;;;;;21.60;24.30;;;;;;4911805;29;19931;-62
2022/03/13 05:50:28;;;;;;;;;;;21.60;24.20;;;;;;4911929;29;20376;-62
2022/03/13 05:52:55;;;;;;;;;;;21.70;24.30;;;;;;4911913;29;19927;-62
2022/03/13 05:55:25;;;;;;;;;;;21.60;24.20;;;;;;4911694;29;19986;-63
2022/03/13 05:57:53;;;;;;;;;;;21.70;24.30;;;;;;4911667;29;19931;-63
2022/03/13 06:00:23;;;;;;;;;;;21.70;24.30;;;;;;4911409;29;20364;-63
2022/03/13 06:02:50;;;;;;;;;;;21.70;24.20;;;;;;4911867;29;19975;-63
2022/03/13 06:05:18;;;;;;;;;;;21.70;24.20;;;;;;4911822;29;20385;-62
2022/03/13 06:07:45;;;;;;;;;;;21.70;24.20;;;;;;4912098;29;20065;-61
2022/03/13 06:10:19;;;;;;;;;;;21.70;24.20;;;;;;4910559;29;20471;-62
2022/03/13 06:12:45;;;;;;;;;;;21.70;24.10;;;;;;4912053;29;19927;-62
2022/03/13 06:15:13;;;;;;;;;;;21.60;24.00;;;;;;4911705;29;20546;-62
2022/03/13 06:17:42;;;;;;;;;;;21.60;24.00;;;;;;4911532;29;19959;-61
2022/03/13 06:20:13;;;;;;;;;;;21.60;24.00;;;;;;4912095;29;19928;-62
2022/03/13 06:22:40;;;;;;;;;;;21.60;23.90;;;;;;4911873;29;20360;-63
2022/03/13 06:25:09;;;;;;;;;;;21.70;23.90;;;;;;4910859;29;20006;-62
2022/03/13 06:27:36;;;;;;;;;;;21.70;23.80;;;;;;4908143;29;19966;-63
2022/03/13 06:30:09;;;;;;;;;;;21.70;23.80;;;;;;4910486;29;19978;-64
2022/03/13 06:32:36;;;;;;;;;;;21.70;23.80;;;;;;4892786;29;19936;-63
2022/03/13 06:35:04;;;;;;;;;;;21.70;23.80;;;;;;4908526;29;20018;-63
2022/03/13 06:37:31;;;;;;;;;;;21.90;23.90;;;;;;4909378;29;19974;-64
2022/03/13 06:39:58;;;;;;;;;;;21.90;23.80;;;;;;4911972;29;20288;-63
2022/03/13 06:42:25;;;;;;;;;;;22.00;23.70;;;;;;4911081;29;20329;-64
2022/03/13 06:44:52;;;;;;;;;;;22.00;23.60;;;;;;4910561;29;19959;-63
2022/03/13 06:47:19;;;;;;;;;;;22.10;23.50;;;;;;4910805;29;19959;-63
2022/03/13 06:49:46;;;;;;;;;;;22.20;23.50;;;;;;4910919;29;19953;-63
2022/03/13 06:52:13;;;;;;;;;;;22.20;23.30;;;;;;4910901;29;19927;-64
2022/03/13 06:54:41;;;;;;;;;;;22.30;23.30;;;;;;4914146;29;19969;-64
2022/03/13 06:57:14;;;;;;;;;;;22.40;23.30;;;;;;4912782;29;20304;-62
2022/03/13 06:59:42;;;;;;;;;;;22.50;23.20;;;;;;4913359;29;19935;-64
2022/03/13 07:02:11;;;;;;;;;;;22.50;23.20;;;;;;4913486;29;19927;-66
2022/03/13 07:04:38;;;;;;;;;;;22.60;23.20;;;;;;4914414;29;20408;-65
2022/03/13 07:07:05;;;;;;;;;;;22.70;23.10;;;;;;4913690;29;19927;-65
2022/03/13 07:09:32;;;;;;;;;;;22.80;23.00;;;;;;4913555;29;19927;-61
2022/03/13 07:11:59;;;;;;;;;;;22.90;23.00;;;;;;4912778;29;19995;-64
2022/03/13 07:14:26;;;;;;;;;;;22.90;23.10;;;;;;4912574;29;20480;-63
2022/03/13 07:16:53;;;;;;;;;;;23.00;23.10;;;;;;4912824;29;19966;-63
2022/03/13 07:19:21;;;;;;;;;;;23.10;23.10;;;;;;4914475;29;20022;-65
2022/03/13 07:21:48;;;;;;;;;;;23.10;22.90;;;;;;4913778;29;20059;-65
2022/03/13 07:24:15;;;;;;;;;;;23.20;22.90;;;;;;4913286;29;19979;-66
2022/03/13 07:26:42;;;;;;;;;;;23.30;22.80;;;;;;4913349;29;19975;-64
2022/03/13 07:29:09;;;;;;;;;;;23.30;22.70;;;;;;4911656;29;19985;-65
2022/03/13 07:31:36;;;;;;;;;;;23.40;22.70;;;;;;4912961;29;20042;-65
2022/03/13 07:34:03;;;;;;;;;;;23.40;22.60;;;;;;4913092;29;19927;-63
2022/03/13 07:36:34;;;;;;;;;;;23.50;22.60;;;;;;4912999;29;19927;-62
2022/03/13 07:39:02;;;;;;;;;;;23.50;22.50;;;;;;4912472;29;19943;-63
2022/03/13 07:41:29;;;;;;;;;;;23.60;22.40;;;;;;4913562;29;20741;-62
2022/03/13 07:43:56;;;;;;;;;;;23.60;22.40;;;;;;4912760;29;19998;-65
2022/03/13 07:46:23;;;;;;;;;;;23.70;22.30;;;;;;4913337;29;19991;-65
2022/03/13 07:48:50;;;;;;;;;;;23.80;22.80;;;;;;4912721;29;19983;-64
2022/03/13 07:51:19;;;;;;;;;;;23.80;22.30;;;;;;4908857;29;19998;-63
2022/03/13 07:53:47;;;;;;;;;;;23.80;22.20;;;;;;4912476;29;19958;-64
2022/03/13 07:56:15;;;;;;;;;;;23.90;22.20;;;;;;4910895;29;19962;-62
2022/03/13 07:58:42;;;;;;;;;;;23.90;22.10;;;;;;4912137;29;19931;-66
2022/03/13 08:01:09;;;;;;;;;;;24.00;22.10;;;;;;4913346;29;20352;-63
2022/03/13 08:03:36;;;;;;;;;;;24.00;22.00;;;;;;4913364;29;20509;-65
2022/03/13 08:06:04;;;;;;;;;;;24.10;22.10;;;;;;4911717;29;19974;-64
2022/03/13 08:08:35;;;;;;;;;;;24.10;22.00;;;;;;4912612;29;19927;-65
2022/03/13 08:11:02;;;;;;;;;;;24.20;22.00;;;;;;4908298;29;20407;-66
2022/03/13 08:13:29;;;;;;;;;;;24.20;22.00;;;;;;4912279;29;19927;-63
2022/03/13 08:15:59;;;;;;;;;;;24.30;21.90;;;;;;4910781;29;20067;-63
2022/03/13 08:18:28;;;;;;;;;;;24.30;21.90;;;;;;4912243;29;19946;-63
2022/03/13 08:20:57;;;;;;;;;;;24.30;22.30;;;;;;4911573;29;20665;-68
2022/03/13 08:23:23;;;;;;;;;;;24.30;21.80;;;;;;4911976;29;19931;-68
2022/03/13 08:25:50;;;;;;;;;;;24.40;22.20;;;;;;4911916;29;20403;-65
2022/03/13 08:28:18;;;;;;;;;;;24.40;22.40;;;;;;4926448;29;19999;-66
2022/03/13 08:30:45;;;;;;;;;;;24.50;23.70;;;;;;4911907;29;19992;-66
2022/03/13 08:33:12;;;;;;;;;;;24.40;23.20;;;;;;4912556;29;19927;-65
2022/03/13 08:35:39;;;;;;;;;;;24.40;23.00;;;;;;4911992;29;19955;-65
2022/03/13 08:38:06;;;;;;;;;;;24.40;22.80;;;;;;4913072;29;19934;-66
2022/03/13 08:40:33;;;;;;;;;;;24.30;22.70;;;;;;4911974;29;19927;-65
2022/03/13 08:43:00;;;;;;;;;;;24.30;22.60;;;;;;4912623;29;19977;-65
2022/03/13 08:45:27;;;;;;;;;;;24.30;22.60;;;;;;4911872;29;20352;-65
2022/03/13 08:47:54;;;;;;;;;;;24.30;22.60;;;;;;4911782;29;19928;-65
2022/03/13 08:50:22;;;;;;;;;;;24.30;22.60;;;;;;4912815;29;19981;-65
2022/03/13 08:52:50;;;;;;;;;;;24.30;22.50;;;;;;4926268;29;20377;-66
2022/03/13 08:55:22;;;;;;;;;;;24.30;22.40;;;;;;4911629;29;19935;-67
2022/03/13 08:57:49;;;;;;;;;;;24.20;22.30;;;;;;4910609;29;20748;-75
2022/03/13 09:00:16;;;;;;;;;;;24.20;22.20;;;;;;4910781;29;20448;-68
2022/03/13 09:02:44;;;;;;;;;;;24.20;22.20;;;;;;4909794;29;19927;-67
2022/03/13 09:05:11;;;;;;;;;;;24.20;21.80;;;;;;4912232;29;19938;-76
2022/03/13 09:07:38;;;;;;;;;;;24.20;21.70;;;;;;4911980;29;20384;-71
2022/03/13 09:10:07;;;;;;;;;;;24.20;21.80;;;;;;4911931;29;19981;-71
2022/03/13 09:12:35;;;;;;;;;;;24.10;21.80;;;;;;4911674;29;19927;-70
2022/03/13 09:15:03;;;;;;;;;;;24.10;21.80;;;;;;4911813;29;19979;-70
2022/03/13 09:17:30;;;;;;;;;;;24.10;21.90;;;;;;4910703;29;20340;-70
2022/03/13 09:19:58;;;;;;;;;;;24.20;21.90;;;;;;4912312;29;19935;-70
2022/03/13 09:22:30;;;;;;;;;;;24.20;22.10;;;;;;4911649;29;19927;-70
2022/03/13 09:24:58;;;;;;;;;;;24.10;22.00;;;;;;4911879;29;20284;-71
2022/03/13 09:27:29;;;;;;;;;;;24.10;21.90;;;;;;4912508;29;19970;-71
2022/03/13 09:29:57;;;;;;;;;;;24.10;21.90;;;;;;4911434;29;20407;-71
2022/03/13 09:32:25;;;;;;;;;;;24.10;21.90;;;;;;4910732;29;19975;-72
2022/03/13 09:34:53;;;;;;;;;;;24.10;22.00;;;;;;4911343;29;19939;-70
2022/03/13 09:37:21;;;;;;;;;;;24.10;21.90;;;;;;4914870;29;19939;-71
2022/03/13 09:40:09;;;;;;;;;;;24.20;21.90;;;;;;4910252;29;19935;-73
2022/03/13 09:42:37;;;;;;;;;;;24.10;21.80;;;;;;4910602;29;20006;-71
2022/03/13 09:45:05;;;;;;;;;;;24.20;22.00;;;;;;4911294;29;20046;-72
2022/03/13 09:47:32;;;;;;;;;;;24.20;22.10;;;;;;4911387;29;19931;-72
2022/03/13 09:49:59;;;;;;;;;;;24.20;22.10;;;;;;4910337;29;19927;-69
2022/03/13 09:52:26;;;;;;;;;;;24.20;22.10;;;;;;4910865;29;19986;-70
2022/03/13 09:54:53;;;;;;;;;;;24.20;22.00;;;;;;4911481;29;20361;-69
2022/03/13 09:57:23;;;;;;;;;;;24.20;21.90;;;;;;4912145;29;20372;-69
2022/03/13 09:59:50;;;;;;;;;;;24.20;21.70;;;;;;4911482;29;20002;-69
2022/03/13 10:02:17;;;;;;;;;;;24.20;21.70;;;;;;4911433;29;19979;-70
2022/03/13 10:04:44;;;;;;;;;;;24.20;21.60;;;;;;4927760;29;19982;-70
2022/03/13 10:07:12;;;;;;;;;;;24.20;21.50;;;;;;4930484;29;19931;-69
2022/03/13 10:09:43;;;;;;;;;;;24.20;21.30;;;;;;4930805;29;20336;-70
2022/03/13 10:12:14;;;;;;;;;;;24.20;21.20;;;;;;4930628;29;19926;-68
2022/03/13 10:15:01;;;;;;;;;;;24.20;21.10;;;;;;4930572;29;19931;-72
2022/03/13 10:17:30;;;;;;;;;;;24.20;21.10;;;;;;4930601;29;19982;-69
2022/03/13 10:20:13;;;;;;;;;;;24.20;21.00;;;;;;4930656;29;20686;-69
2022/03/13 10:22:41;;;;;;;;;;;24.20;21.00;;;;;;4930316;29;19934;-70
2022/03/13 10:25:09;;;;;;;;;;;24.20;21.00;;;;;;4930078;29;19974;-69
2022/03/13 10:27:36;;;;;;;;;;;24.30;21.00;;;;;;4930962;29;19997;-69
2022/03/13 10:30:09;;;;;;;;;;;24.20;20.90;;;;;;4934500;29;20325;-69
2022/03/13 10:32:36;;;;;;;;;;;24.30;20.90;;;;;;4934113;29;19927;-69
2022/03/13 10:35:04;;;;;;;;;;;24.30;20.90;;;;;;4933320;29;20319;-69
2022/03/13 10:37:33;;;;;;;;;;;24.20;20.80;;;;;;4933850;29;20471;-69
2022/03/13 10:40:05;;;;;;;;;;;24.30;20.90;;;;;;4933905;29;19927;-70
2022/03/13 10:42:33;;;;;;;;;;;24.30;20.80;;;;;;4933659;29;19931;-70
2022/03/13 10:45:02;;;;;;;;;;;24.30;20.80;;;;;;4934269;29;20009;-70
2022/03/13 10:47:31;;;;;;;;;;;24.30;20.80;;;;;;4933523;29;19958;-70
2022/03/13 10:49:58;;;;;;;;;;;24.30;20.80;;;;;;4933709;29;19927;-70
2022/03/13 10:52:29;;;;;;;;;;;24.30;20.80;;;;;;4933673;29;20400;-69
2022/03/13 10:55:22;;;;;;;;;;;24.30;20.70;;;;;;4933545;29;19981;-69
2022/03/13 10:57:55;;;;;;;;;;;24.30;20.70;;;;;;4933557;29;20034;-70
2022/03/13 11:00:23;;;;;;;;;;;24.30;20.70;;;;;;4933475;29;19958;-70
2022/03/13 11:02:50;;;;;;;;;;;24.30;20.70;;;;;;4933569;29;19927;-69
2022/03/13 11:05:17;;;;;;;;;;;24.30;20.70;;;;;;4933589;29;19930;-70
2022/03/13 11:07:49;;;;;;;;;;;24.30;20.80;;;;;;4933589;29;19953;-70
2022/03/13 11:10:17;;;;;;;;;;;24.30;20.70;;;;;;4933741;29;19999;-69
2022/03/13 11:12:46;;;;;;;;;;;24.30;21.10;;;;;;4933079;29;19978;-69
2022/03/13 11:15:13;;;;;;;;;;;24.30;20.70;;;;;;4932298;29;19958;-71
2022/03/13 11:17:43;;;;;;;;;;;24.30;21.20;;;;;;4933563;29;19931;-70
2022/03/13 11:20:11;;;;;;;;;;;24.30;20.80;;;;;;4933214;29;19933;-70
2022/03/13 11:22:39;;;;;;;;;;;24.30;20.80;;;;;;4932047;29;19931;-69
2022/03/13 11:25:07;;;;;;;;;;;24.20;20.70;;;;;;4933412;29;20013;-69
2022/03/13 11:27:36;;;;;;;;;;;24.20;20.70;;;;;;4933189;29;19927;-69
2022/03/13 11:30:04;;;;;;;;;;;24.20;20.70;;;;;;4933117;29;19996;-69
2022/03/13 11:32:48;;;;;;;;;;;24.30;20.80;;;;;;4933304;29;20005;-69
2022/03/13 11:35:19;;;;;;;;;;;24.30;20.70;;;;;;4932669;29;19990;-69
2022/03/13 11:37:50;;;;;;;;;;;24.30;20.60;;;;;;4932702;29;19926;-69
2022/03/13 11:40:32;;;;;;;;;;;24.30;20.50;;;;;;4931857;29;19933;-70
2022/03/13 11:43:18;;;;;;;;;;;24.30;20.50;;;;;;4933002;29;20637;-69
2022/03/13 11:45:53;;;;;;;;;;;24.30;20.50;;;;;;4932612;29;19927;-70
2022/03/13 11:48:37;;;;;;;;;;;24.30;20.50;;;;;;4932988;29;19970;-70
2022/03/13 11:51:04;;;;;;;;;;;24.30;20.50;;;;;;4932812;29;19989;-70
2022/03/13 11:53:44;;;;;;;;;;;24.30;20.60;;;;;;4932734;29;19974;-69
2022/03/13 11:56:27;;;;;;;;;;;24.30;20.40;;;;;;4932564;29;19927;-69
2022/03/13 11:58:55;;;;;;;;;;;24.30;20.40;;;;;;4932445;29;20423;-69
2022/03/13 12:01:37;;;;;;;;;;;24.30;20.40;;;;;;4932411;29;19937;-70
2022/03/13 12:04:24;;;;;;;;;;;24.30;20.40;;;;;;4932152;29;19982;-69
2022/03/13 12:06:55;;;;;;;;;;;24.40;20.50;;;;;;4931389;29;19930;-69
2022/03/13 12:09:29;;;;;;;;;;;24.40;20.50;;;;;;4932343;29;19933;-69
2022/03/13 12:11:59;;;;;;;;;;;24.40;20.50;;;;;;4932825;29;19974;-69
2022/03/13 12:14:48;;;;;;;;;;;24.40;20.40;;;;;;4932478;29;19931;-69
2022/03/13 12:17:15;;;;;;;;;;;24.40;20.50;;;;;;4932143;29;19977;-69
2022/03/13 12:19:44;;;;;;;;;;;24.40;20.40;;;;;;4931844;29;20388;-69
2022/03/13 12:22:12;;;;;;;;;;;24.40;20.50;;;;;;4932330;29;19962;-69
2022/03/13 12:24:47;;;;;;;;;;;24.40;20.50;;;;;;4932173;29;19938;-69
2022/03/13 12:27:14;;;;;;;;;;;24.40;20.40;;;;;;4932013;29;19966;-69
2022/03/13 12:29:41;;;;;;;;;;;24.40;20.40;;;;;;4931010;29;19974;-69
2022/03/13 12:32:11;;;;;;;;;;;24.40;20.50;;;;;;4932230;29;19926;-69
2022/03/13 12:34:42;;;;;;;;;;;24.40;20.50;;;;;;4931787;29;20027;-69
2022/03/13 12:37:09;;;;;;;;;;;24.40;20.50;;;;;;4931651;29;19927;-69
2022/03/13 12:39:50;;;;;;;;;;;24.40;20.40;;;;;;4932130;29;19974;-70
2022/03/13 12:42:23;;;;;;;;;;;24.40;20.30;;;;;;4932034;29;19966;-69
2022/03/13 12:45:04;;;;;;;;;;;24.40;20.30;;;;;;4931837;29;19931;-69
2022/03/13 12:47:32;;;;;;;;;;;24.50;20.40;;;;;;4930556;29;19949;-69
2022/03/13 12:49:59;;;;;;;;;;;24.40;20.30;;;;;;4931456;29;19927;-69
2022/03/13 12:52:27;;;;;;;;;;;24.40;20.30;;;;;;4931505;29;20284;-69
2022/03/13 12:54:58;;;;;;;;;;;24.50;20.30;;;;;;4931626;29;19926;-69
2022/03/13 12:57:25;;;;;;;;;;;24.50;20.30;;;;;;4931380;29;19977;-69
2022/03/13 12:59:52;;;;;;;;;;;24.50;20.20;;;;;;4930305;29;19979;-68
2022/03/13 13:02:23;;;;;;;;;;;24.50;20.20;;;;;;4931593;29;19934;-68
2022/03/13 13:04:55;;;;;;;;;;;24.50;20.20;;;;;;4931346;29;20396;-68
2022/03/13 13:07:24;;;;;;;;;;;24.50;20.20;;;;;;4931273;29;19930;-69
2022/03/13 13:09:51;;;;;;;;;;;24.50;20.10;;;;;;4931084;29;19999;-67
2022/03/13 13:12:20;;;;;;;;;;;24.50;20.10;;;;;;4931259;29;19931;-70
2022/03/13 13:14:48;;;;;;;;;;;24.50;20.20;;;;;;4931234;29;20269;-70
2022/03/13 13:17:17;;;;;;;;;;;24.50;20.10;;;;;;4931175;29;19969;-68
2022/03/13 13:19:45;;;;;;;;;;;24.50;20.10;;;;;;4931449;29;19980;-68
2022/03/13 13:22:13;;;;;;;;;;;24.50;20.10;;;;;;4930143;29;19930;-68
2022/03/13 13:24:53;;;;;;;;;;;24.50;20.10;;;;;;4931224;29;20367;-68
2022/03/13 13:27:32;;;;;;;;;;;24.50;20.10;;;;;;4931172;29;19935;-68
2022/03/13 13:30:12;;;;;;;;;;;24.50;20.10;;;;;;4930932;29;19927;-68
2022/03/13 13:32:46;;;;;;;;;;;24.50;20.00;;;;;;4930976;29;20337;-68
2022/03/13 13:35:21;;;;;;;;;;;24.50;20.10;;;;;;4931042;29;19970;-68
2022/03/13 13:38:08;;;;;;;;;;;24.50;20.10;;;;;;4930794;29;19927;-68
2022/03/13 13:40:38;;;;;;;;;;;24.50;20.10;;;;;;4929773;29;19927;-68
2022/03/13 13:43:07;;;;;;;;;;;24.50;20.00;;;;;;4931164;29;19955;-68
2022/03/13 13:45:36;;;;;;;;;;;24.50;20.00;;;;;;4930929;29;19997;-68
2022/03/13 13:48:23;;;;;;;;;;;24.50;20.00;;;;;;4931000;29;19927;-68
2022/03/13 13:51:13;;;;;;;;;;;24.50;20.10;;;;;;4930902;29;19926;-68
2022/03/13 13:53:48;;;;;;;;;;;24.50;20.00;;;;;;4930894;29;19926;-68
2022/03/13 13:56:16;;;;;;;;;;;24.50;20.00;;;;;;4930998;29;19926;-68
2022/03/13 13:58:44;;;;;;;;;;;24.50;20.00;;;;;;4930658;29;20673;-68
2022/03/13 14:01:26;;;;;;;;;;;24.50;20.00;;;;;;4930142;29;19933;-68
2022/03/13 14:03:54;;;;;;;;;;;24.50;20.00;;;;;;4933140;29;19927;-68
2022/03/13 14:06:21;;;;;;;;;;;24.50;20.00;;;;;;4934424;29;19927;-68
2022/03/13 14:08:49;;;;;;;;;;;24.50;19.90;;;;;;4934663;29;19938;-68
2022/03/13 14:11:17;;;;;;;;;;;24.50;19.90;;;;;;4934389;29;19927;-68
2022/03/13 14:13:44;;;;;;;;;;;24.50;19.90;;;;;;4934113;29;19927;-68
2022/03/13 14:16:12;;;;;;;;;;;24.50;19.90;;;;;;4934403;29;19930;-68
2022/03/13 14:18:39;;;;;;;;;;;24.60;19.90;;;;;;4934284;29;20335;-67
2022/03/13 14:21:07;;;;;;;;;;;24.60;19.90;;;;;;4934595;29;19930;-68
2022/03/13 14:23:34;;;;;;;;;;;24.50;19.80;;;;;;4934747;29;19930;-68
2022/03/13 14:26:01;;;;;;;;;;;24.60;19.90;;;;;;4932753;29;19926;-68
2022/03/13 14:28:28;;;;;;;;;;;24.50;19.70;;;;;;4934297;29;20360;-67